Decatur, Mississippi
Current Conditions -  °F | °C
As of 3:58 PM on Friday 31 Oct 2014 (Local Time) from KMEI Reporting Station
Broken Clouds Broken Clouds  
Wind Chill: 69°   Ceiling: 9500
Heat Index: 69°   Visibility: 10mi
Dew Point: 46°   Wind: 16mph
Humidity: 44%   Direction: 340°NNW
Pressure: 29.99"   Gusts: NA
Location:  32.44°N, 89.11°W
Report Text: KMEI 312058Z 34014KT 10SM SCT050 BKN095 21/08 A2999 RMK AO2 SLP154 T02060078 53005
Loading
Personal Weather Stations






























Interactive Weather Map
Tropical Storm Tracking
New forecast layout! Learn more

10-Day Weather Forecast

Advertisements
Track Severe Weather on mobile